Time,TemperatureF,DewpointF,PressureIn,WindDirection,WindDirectionDegrees,WindSpeedMPH,WindSpeedGustMPH,Humidity,HourlyPrecipIn,Conditions,Clouds,dailyrainin,SoftwareType,DateUTC
2013-04-23 00:00:00,74.5,35.3,29.70,South,178,0.0,0.0,24,0.00,,,0.00,Wunderground v.1.15,2013-04-23 07:00:00,
2013-04-23 00:05:00,74.2,35.1,29.70,South,170,2.0,3.0,24,0.00,,,0.00,Wunderground v.1.15,2013-04-23 07:05:00,
2013-04-23 00:10:00,74.2,34.0,29.69,West,277,0.0,2.0,23,0.00,,,0.00,Wunderground v.1.15,2013-04-23 07:10:00,
2013-04-23 00:15:00,74.1,32.8,29.69,SW,221,1.0,3.0,22,0.00,,,0.00,Wunderground v.1.15,2013-04-23 07:15:00,
2013-04-23 00:20:00,74.1,31.6,29.70,WSW,241,0.0,1.0,21,0.00,,,0.00,Wunderground v.1.15,2013-04-23 07:20:00,
2013-04-23 00:25:00,74.0,30.4,29.70,SW,226,0.0,1.0,20,0.00,,,0.00,Wunderground v.1.15,2013-04-23 07:25:00,
2013-04-23 00:30:00,73.9,30.3,29.70,SW,229,0.0,1.0,20,0.00,,,0.00,Wunderground v.1.15,2013-04-23 07:30:00,
2013-04-23 00:35:00,73.7,30.1,29.70,WSW,252,0.0,2.0,20,0.00,,,0.00,Wunderground v.1.15,2013-04-23 07:35:00,
2013-04-23 00:40:00,73.7,30.1,29.70,SE,139,2.0,2.0,20,0.00,,,0.00,Wunderground v.1.15,2013-04-23 07:40:00,
2013-04-23 00:45:00,73.9,30.3,29.70,SSW,210,0.0,2.0,20,0.00,,,0.00,Wunderground v.1.15,2013-04-23 07:45:00,
2013-04-23 00:50:00,73.9,30.3,29.69,South,191,0.0,0.0,20,0.00,,,0.00,Wunderground v.1.15,2013-04-23 07:50:00,
2013-04-23 00:55:00,73.9,30.3,29.69,SE,127,2.0,2.0,20,0.00,,,0.00,Wunderground v.1.15,2013-04-23 07:55:00,
2013-04-23 01:00:00,73.8,30.2,29.69,South,178,0.0,1.0,20,0.00,,,0.00,Wunderground v.1.15,2013-04-23 08:00:00,
2013-04-23 01:05:00,73.6,31.2,29.69,SW,222,1.0,2.0,21,0.00,,,0.00,Wunderground v.1.15,2013-04-23 08:05:00,
2013-04-23 01:10:00,73.2,30.9,29.69,SSW,207,0.0,0.0,21,0.00,,,0.00,Wunderground v.1.15,2013-04-23 08:10:00,
2013-04-23 01:15:00,73.1,30.8,29.69,WSW,242,0.0,3.0,21,0.00,,,0.00,Wunderground v.1.15,2013-04-23 08:15:00,
2013-04-23 01:20:00,72.4,34.6,29.69,NNW,341,1.0,1.0,25,0.00,,,0.00,Wunderground v.1.15,2013-04-23 08:20:00,
2013-04-23 01:25:00,69.6,40.7,29.69,NW,314,0.0,2.0,35,0.00,,,0.00,Wunderground v.1.15,2013-04-23 08:25:00,
2013-04-23 01:30:00,67.7,39.8,29.69,WNW,282,0.0,1.0,36,0.00,,,0.00,Wunderground v.1.15,2013-04-23 08:30:00,
2013-04-23 01:35:00,67.3,38.0,29.69,West,271,0.0,2.0,34,0.00,,,0.00,Wunderground v.1.15,2013-04-23 08:35:00,
2013-04-23 01:40:00,67.4,38.0,29.69,North,349,1.0,2.0,34,0.00,,,0.00,Wunderground v.1.15,2013-04-23 08:40:00,
2013-04-23 01:45:00,66.1,38.4,29.69,NNW,339,0.0,6.0,36,0.00,,,0.00,Wunderground v.1.15,2013-04-23 08:45:00,
2013-04-23 01:50:00,65.2,38.9,29.69,North,356,0.0,1.0,38,0.00,,,0.00,Wunderground v.1.15,2013-04-23 08:50:00,
2013-04-23 01:55:00,65.4,39.1,29.69,East,91,0.0,1.0,38,0.00,,,0.00,Wunderground v.1.15,2013-04-23 08:55:00,
2013-04-23 02:00:00,65.6,39.3,29.69,East,91,0.0,0.0,38,0.00,,,0.00,Wunderground v.1.15,2013-04-23 09:00:00,
2013-04-23 02:05:00,65.6,38.6,29.69,NE,41,0.0,1.0,37,0.00,,,0.00,Wunderground v.1.15,2013-04-23 09:05:00,
2013-04-23 02:10:00,65.1,38.2,29.69,NE,41,0.0,1.0,37,0.00,,,0.00,Wunderground v.1.15,2013-04-23 09:10:00,
2013-04-23 02:15:00,65.0,38.8,29.68,East,84,0.0,1.0,38,0.00,,,0.00,Wunderground v.1.15,2013-04-23 09:15:00,
2013-04-23 02:20:00,65.3,38.3,29.68,ESE,105,0.0,0.0,37,0.00,,,0.00,Wunderground v.1.15,2013-04-23 09:20:00,
2013-04-23 02:25:00,65.1,38.2,29.68,South,183,0.0,2.0,37,0.00,,,0.00,Wunderground v.1.15,2013-04-23 09:25:00,
2013-04-23 02:30:00,65.2,34.6,29.68,WSW,243,0.0,1.0,32,0.00,,,0.00,Wunderground v.1.15,2013-04-23 09:30:00,
2013-04-23 02:35:00,66.1,32.9,29.68,SSW,198,0.0,1.0,29,0.00,,,0.00,Wunderground v.1.15,2013-04-23 09:35:00,
2013-04-23 02:40:00,66.8,35.2,29.68,SSW,197,0.0,0.0,31,0.00,,,0.00,Wunderground v.1.15,2013-04-23 09:40:00,
2013-04-23 02:45:00,66.7,32.5,29.68,SSW,198,0.0,0.0,28,0.00,,,0.00,Wunderground v.1.15,2013-04-23 09:45:00,
2013-04-23 02:50:00,65.3,35.4,29.68,South,191,0.0,0.0,33,0.00,,,0.00,Wunderground v.1.15,2013-04-23 09:50:00,
2013-04-23 02:55:00,64.0,35.8,29.68,South,191,1.0,1.0,35,0.00,,,0.00,Wunderground v.1.15,2013-04-23 09:55:00,
2013-04-23 03:00:00,64.4,36.1,29.69,WNW,295,4.0,4.0,35,0.00,,,0.00,Wunderground v.1.15,2013-04-23 10:00:00,
2013-04-23 03:05:00,63.4,36.7,29.69,North,11,0.0,4.0,37,0.00,,,0.00,Wunderground v.1.15,2013-04-23 10:05:00,
2013-04-23 03:10:00,63.1,37.1,29.69,NW,326,1.0,2.0,38,0.00,,,0.00,Wunderground v.1.15,2013-04-23 10:10:00,
2013-04-23 03:15:00,61.7,37.7,29.69,NW,307,0.0,2.0,41,0.00,,,0.00,Wunderground v.1.15,2013-04-23 10:15:00,
2013-04-23 03:20:00,61.2,39.1,29.69,WSW,239,1.0,1.0,44,0.00,,,0.00,Wunderground v.1.15,2013-04-23 10:20:00,
2013-04-23 03:25:00,61.7,40.1,29.69,SW,233,1.0,2.0,45,0.00,,,0.00,Wunderground v.1.15,2013-04-23 10:25:00,
2013-04-23 03:30:00,61.7,39.6,29.69,SSE,151,0.0,1.0,44,0.00,,,0.00,Wunderground v.1.15,2013-04-23 10:30:00,
2013-04-23 03:35:00,62.0,39.8,29.69,SSE,155,0.0,2.0,44,0.00,,,0.00,Wunderground v.1.15,2013-04-23 10:35:00,
2013-04-23 03:40:00,62.4,39.6,29.69,WSW,243,0.0,0.0,43,0.00,,,0.00,Wunderground v.1.15,2013-04-23 10:40:00,
2013-04-23 03:45:00,63.1,39.0,29.69,SW,236,0.0,2.0,41,0.00,,,0.00,Wunderground v.1.15,2013-04-23 10:45:00,
2013-04-23 03:50:00,63.1,39.6,29.69,WSW,250,1.0,1.0,42,0.00,,,0.00,Wunderground v.1.15,2013-04-23 10:50:00,
2013-04-23 03:55:00,62.5,40.3,29.69,SW,236,0.0,2.0,44,0.00,,,0.00,Wunderground v.1.15,2013-04-23 10:55:00,
2013-04-23 04:00:00,62.0,40.4,29.70,SW,236,0.0,0.0,45,0.00,,,0.00,Wunderground v.1.15,2013-04-23 11:00:00,
2013-04-23 04:05:00,61.4,41.5,29.70,North,1,0.0,2.0,48,0.00,,,0.00,Wunderground v.1.15,2013-04-23 11:05:00,
2013-04-23 04:10:00,61.0,40.1,29.70,North,5,0.0,1.0,46,0.00,,,0.00,Wunderground v.1.15,2013-04-23 11:10:00,
2013-04-23 04:15:00,60.7,40.3,29.71,North,6,1.0,1.0,47,0.00,,,0.00,Wunderground v.1.15,2013-04-23 11:15:00,
2013-04-23 04:20:00,60.8,39.9,29.71,NE,56,1.0,1.0,46,0.00,,,0.00,Wunderground v.1.15,2013-04-23 11:20:00,
2013-04-23 04:25:00,61.2,39.7,29.72,NNW,344,1.0,1.0,45,0.00,,,0.00,Wunderground v.1.15,2013-04-23 11:25:00,
2013-04-23 04:30:00,61.0,38.3,29.72,North,356,0.0,1.0,43,0.00,,,0.00,Wunderground v.1.15,2013-04-23 11:30:00,
2013-04-23 04:35:00,60.6,38.6,29.72,NE,51,0.0,1.0,44,0.00,,,0.00,Wunderground v.1.15,2013-04-23 11:35:00,
2013-04-23 04:40:00,60.6,39.1,29.72,NE,51,1.0,1.0,45,0.00,,,0.00,Wunderground v.1.15,2013-04-23 11:40:00,
2013-04-23 04:45:00,60.8,39.3,29.73,NNE,15,2.0,2.0,45,0.00,,,0.00,Wunderground v.1.15,2013-04-23 11:45:00,
2013-04-23 04:50:00,60.3,38.3,29.73,ESE,112,1.0,1.0,44,0.00,,,0.00,Wunderground v.1.15,2013-04-23 11:50:00,
2013-04-23 04:55:00,60.4,38.9,29.73,ESE,113,0.0,1.0,45,0.00,,,0.00,Wunderground v.1.15,2013-04-23 11:55:00,
2013-04-23 05:00:00,60.8,39.3,29.73,ESE,112,0.0,1.0,45,0.00,,,0.00,Wunderground v.1.15,2013-04-23 12:00:00,
2013-04-23 05:05:00,61.2,38.5,29.74,NW,319,0.0,4.0,43,0.00,,,0.00,Wunderground v.1.15,2013-04-23 12:05:00,
2013-04-23 05:10:00,60.8,38.7,29.75,NNE,25,0.0,1.0,44,0.00,,,0.00,Wunderground v.1.15,2013-04-23 12:10:00,
2013-04-23 05:15:00,60.3,38.9,29.75,North,4,0.0,2.0,45,0.00,,,0.00,Wunderground v.1.15,2013-04-23 12:15:00,
2013-04-23 05:20:00,60.6,39.1,29.76,North,9,0.0,1.0,45,0.00,,,0.00,Wunderground v.1.15,2013-04-23 12:20:00,
2013-04-23 05:25:00,60.8,39.3,29.76,NNW,345,0.0,3.0,45,0.00,,,0.00,Wunderground v.1.15,2013-04-23 12:25:00,
2013-04-23 05:30:00,61.1,39.6,29.76,NE,34,0.0,0.0,45,0.00,,,0.00,Wunderground v.1.15,2013-04-23 12:30:00,
2013-04-23 05:35:00,61.3,39.8,29.76,NNE,30,0.0,1.0,45,0.00,,,0.00,Wunderground v.1.15,2013-04-23 12:35:00,
2013-04-23 05:40:00,61.3,39.2,29.76,ESE,111,0.0,0.0,44,0.00,,,0.00,Wunderground v.1.15,2013-04-23 12:40:00,
2013-04-23 05:45:00,61.3,38.6,29.77,South,181,0.0,2.0,43,0.00,,,0.00,Wunderground v.1.15,2013-04-23 12:45:00,
2013-04-23 05:50:00,62.9,38.2,29.77,NNW,334,4.0,4.0,40,0.00,,,0.00,Wunderground v.1.15,2013-04-23 12:50:00,
2013-04-23 05:55:00,63.3,38.6,29.77,NE,51,0.0,5.0,40,0.00,,,0.00,Wunderground v.1.15,2013-04-23 12:55:00,
2013-04-23 06:00:00,64.1,37.3,29.77,East,93,0.0,2.0,37,0.00,,,0.00,Wunderground v.1.15,2013-04-23 13:00:00,
2013-04-23 06:05:00,64.9,37.3,29.78,East,89,1.0,2.0,36,0.00,,,0.00,Wunderground v.1.15,2013-04-23 13:05:00,
2013-04-23 06:10:00,65.4,35.5,29.78,ENE,61,0.0,0.0,33,0.00,,,0.00,Wunderground v.1.15,2013-04-23 13:10:00,
2013-04-23 06:15:00,65.6,34.9,29.78,ENE,62,0.0,1.0,32,0.00,,,0.00,Wunderground v.1.15,2013-04-23 13:15:00,
2013-04-23 06:20:00,66.0,32.8,29.78,North,360,3.0,3.0,29,0.00,,,0.00,Wunderground v.1.15,2013-04-23 13:20:00,
2013-04-23 06:25:00,67.0,32.8,29.79,North,355,1.0,6.0,28,0.00,,,0.00,Wunderground v.1.15,2013-04-23 13:25:00,
2013-04-23 06:30:00,67.5,29.4,29.79,North,8,1.0,2.0,24,0.00,,,0.00,Wunderground v.1.15,2013-04-23 13:30:00,
2013-04-23 06:35:00,68.0,29.8,29.80,North,355,2.0,4.0,24,0.00,,,0.00,Wunderground v.1.15,2013-04-23 13:35:00,
2013-04-23 06:40:00,68.1,29.9,29.80,NW,309,5.0,5.0,24,0.00,,,0.00,Wunderground v.1.15,2013-04-23 13:40:00,
2013-04-23 06:45:00,68.1,32.8,29.80,WSW,256,3.0,9.0,27,0.00,,,0.00,Wunderground v.1.15,2013-04-23 13:45:00,
2013-04-23 06:50:00,67.9,33.6,29.80,NW,307,2.0,4.0,28,0.00,,,0.00,Wunderground v.1.15,2013-04-23 13:50:00,
2013-04-23 06:55:00,67.7,34.3,29.81,NW,323,2.0,4.0,29,0.00,,,0.00,Wunderground v.1.15,2013-04-23 13:55:00,
2013-04-23 07:00:00,67.6,34.2,29.81,NNW,341,1.0,2.0,29,0.00,,,0.00,Wunderground v.1.15,2013-04-23 14:00:00,
2013-04-23 07:05:00,67.8,36.0,29.81,NW,316,2.0,4.0,31,0.00,,,0.00,Wunderground v.1.15,2013-04-23 14:05:00,
2013-04-23 07:10:00,68.2,35.6,29.82,North,6,4.0,4.0,30,0.00,,,0.00,Wunderground v.1.15,2013-04-23 14:10:00,
2013-04-23 07:15:00,68.7,35.1,29.82,ENE,72,2.0,8.0,29,0.00,,,0.00,Wunderground v.1.15,2013-04-23 14:15:00,
2013-04-23 07:20:00,69.2,33.8,29.82,NNE,19,6.0,9.0,27,0.00,,,0.00,Wunderground v.1.15,2013-04-23 14:20:00,
2013-04-23 07:25:00,69.7,32.3,29.82,North,8,7.0,8.0,25,0.00,,,0.00,Wunderground v.1.15,2013-04-23 14:25:00,
2013-04-23 07:30:00,70.2,32.7,29.82,NNW,333,3.0,8.0,25,0.00,,,0.00,Wunderground v.1.15,2013-04-23 14:30:00,
2013-04-23 07:35:00,71.0,29.1,29.83,NW,315,10.0,11.0,21,0.00,,,0.00,Wunderground v.1.15,2013-04-23 14:35:00,
2013-04-23 07:40:00,72.0,27.5,29.83,NNW,340,11.0,18.0,19,0.00,,,0.00,Wunderground v.1.15,2013-04-23 14:40:00,
2013-04-23 07:45:00,72.7,26.7,29.83,NNE,15,14.0,16.0,18,0.00,,,0.00,Wunderground v.1.15,2013-04-23 14:45:00,
2013-04-23 07:50:00,73.2,25.7,29.83,NNE,27,5.0,18.0,17,0.00,,,0.00,Wunderground v.1.15,2013-04-23 14:50:00,
2013-04-23 07:55:00,73.8,23.2,29.83,NE,41,14.0,22.0,15,0.00,,,0.00,Wunderground v.1.15,2013-04-23 14:55:00,
2013-04-23 07:59:00,74.3,23.6,29.83,NNW,345,7.0,22.0,15,0.00,,,0.00,Wunderground v.1.15,2013-04-23 14:59:00,
2013-04-23 08:04:00,74.5,23.8,29.84,NNW,346,16.0,20.0,15,0.00,,,0.00,Wunderground v.1.15,2013-04-23 15:04:00,
2013-04-23 08:09:00,74.9,24.1,29.84,NNE,12,18.0,22.0,15,0.00,,,0.00,Wunderground v.1.15,2013-04-23 15:09:00,
2013-04-23 08:14:00,75.2,22.7,29.84,South,170,8.0,24.0,14,0.00,,,0.00,Wunderground v.1.15,2013-04-23 15:14:00,
2013-04-23 08:19:00,75.6,21.2,29.84,NNW,339,21.0,25.0,13,0.00,,,0.00,Wunderground v.1.15,2013-04-23 15:19:00,
2013-04-23 08:24:00,75.9,21.5,29.84,North,355,15.0,27.0,13,0.00,,,0.00,Wunderground v.1.15,2013-04-23 15:24:00,
2013-04-23 08:29:00,76.1,19.8,29.84,NNW,330,11.0,30.0,12,0.00,,,0.00,Wunderground v.1.15,2013-04-23 15:29:00,
2013-04-23 08:34:00,76.4,18.0,29.85,NNE,20,27.0,28.0,11,0.00,,,0.00,Wunderground v.1.15,2013-04-23 15:34:00,
2013-04-23 08:39:00,76.4,18.0,29.85,NNE,12,15.0,30.0,11,0.00,,,0.00,Wunderground v.1.15,2013-04-23 15:39:00,
2013-04-23 08:44:00,76.8,18.3,29.85,North,359,25.0,25.0,11,0.00,,,0.00,Wunderground v.1.15,2013-04-23 15:44:00,
2013-04-23 08:49:00,77.0,20.5,29.85,NNW,342,13.0,29.0,12,0.00,,,0.00,Wunderground v.1.15,2013-04-23 15:49:00,
2013-04-23 08:54:00,77.1,18.5,29.85,NNW,346,13.0,34.0,11,0.00,,,0.00,Wunderground v.1.15,2013-04-23 15:54:00,
2013-04-23 08:59:00,77.2,16.4,29.85,North,355,16.0,34.0,10,0.00,,,0.00,Wunderground v.1.15,2013-04-23 15:59:00,
2013-04-23 09:04:00,77.3,16.4,29.85,NNE,13,14.0,29.0,10,0.00,,,0.00,Wunderground v.1.15,2013-04-23 16:04:00,
2013-04-23 09:09:00,77.2,18.6,29.86,North,11,18.0,34.0,11,0.00,,,0.00,Wunderground v.1.15,2013-04-23 16:09:00,
2013-04-23 09:14:00,77.5,16.6,29.86,NNW,335,21.0,30.0,10,0.00,,,0.00,Wunderground v.1.15,2013-04-23 16:14:00,
2013-04-23 09:19:00,77.5,16.6,29.86,WNW,298,17.0,32.0,10,0.00,,,0.00,Wunderground v.1.15,2013-04-23 16:19:00,
2013-04-23 09:24:00,77.9,19.1,29.86,NNE,12,15.0,27.0,11,0.00,,,0.00,Wunderground v.1.15,2013-04-23 16:24:00,
2013-04-23 09:29:00,77.9,14.5,29.87,NNE,27,23.0,35.0,9,0.00,,,0.00,Wunderground v.1.15,2013-04-23 16:29:00,
2013-04-23 09:34:00,78.1,17.0,29.87,North,5,23.0,33.0,10,0.00,,,0.00,Wunderground v.1.15,2013-04-23 16:34:00,
2013-04-23 09:39:00,78.0,17.0,29.87,NNW,347,24.0,33.0,10,0.00,,,0.00,Wunderground v.1.15,2013-04-23 16:39:00,
2013-04-23 09:44:00,78.2,14.7,29.87,North,6,15.0,30.0,9,0.00,,,0.00,Wunderground v.1.15,2013-04-23 16:44:00,
2013-04-23 09:49:00,78.4,14.8,29.88,NNE,19,19.0,35.0,9,0.00,,,0.00,Wunderground v.1.15,2013-04-23 16:49:00,
2013-04-23 09:54:00,78.5,14.9,29.87,North,354,19.0,30.0,9,0.00,,,0.00,Wunderground v.1.15,2013-04-23 16:54:00,
2013-04-23 09:59:00,79.0,15.3,29.88,NW,319,14.0,34.0,9,0.00,,,0.00,Wunderground v.1.15,2013-04-23 16:59:00,
2013-04-23 10:04:00,79.0,15.3,29.88,NNW,345,23.0,31.0,9,0.00,,,0.00,Wunderground v.1.15,2013-04-23 17:04:00,
2013-04-23 10:09:00,79.1,15.4,29.88,NNW,348,23.0,32.0,9,0.00,,,0.00,Wunderground v.1.15,2013-04-23 17:09:00,
2013-04-23 10:14:00,79.3,12.8,29.88,North,354,28.0,29.0,8,0.00,,,0.00,Wunderground v.1.15,2013-04-23 17:14:00,
2013-04-23 10:19:00,79.2,12.8,29.89,NNE,15,26.0,35.0,8,0.00,,,0.00,Wunderground v.1.15,2013-04-23 17:19:00,
2013-04-23 10:24:00,79.3,12.8,29.89,NNW,333,29.0,34.0,8,0.00,,,0.00,Wunderground v.1.15,2013-04-23 17:24:00,
2013-04-23 10:29:00,79.5,13.0,29.89,NNW,337,18.0,34.0,8,0.00,,,0.00,Wunderground v.1.15,2013-04-23 17:29:00,
2013-04-23 10:34:00,79.9,13.3,29.89,NNE,14,22.0,30.0,8,0.00,,,0.00,Wunderground v.1.15,2013-04-23 17:34:00,
2013-04-23 10:39:00,80.4,13.7,29.89,NW,319,20.0,32.0,8,0.00,,,0.00,Wunderground v.1.15,2013-04-23 17:39:00,
2013-04-23 10:44:00,80.8,10.9,29.89,North,8,20.0,29.0,7,0.00,,,0.00,Wunderground v.1.15,2013-04-23 17:44:00,
2013-04-23 10:49:00,80.8,10.9,29.89,North,355,25.0,29.0,7,0.00,,,0.00,Wunderground v.1.15,2013-04-23 17:49:00,
2013-04-23 10:54:00,80.8,14.0,29.89,NW,325,5.0,29.0,8,0.00,,,0.00,Wunderground v.1.15,2013-04-23 17:54:00,
2013-04-23 10:59:00,81.0,11.1,29.89,NNW,339,25.0,30.0,7,0.00,,,0.00,Wunderground v.1.15,2013-04-23 17:59:00,
2013-04-23 11:04:00,80.8,7.5,29.89,North,352,27.0,30.0,6,0.00,,,0.00,Wunderground v.1.15,2013-04-23 18:04:00,
2013-04-23 11:09:00,80.9,11.0,29.89,NW,307,20.0,30.0,7,0.00,,,0.00,Wunderground v.1.15,2013-04-23 18:09:00,
2013-04-23 11:14:00,80.9,11.0,29.89,NW,323,15.0,29.0,7,0.00,,,0.00,Wunderground v.1.15,2013-04-23 18:14:00,
2013-04-23 11:19:00,81.4,11.4,29.89,East,79,10.0,31.0,7,0.00,,,0.00,Wunderground v.1.15,2013-04-23 18:19:00,
2013-04-23 11:24:00,81.9,11.7,29.89,NW,319,14.0,24.0,7,0.00,,,0.00,Wunderground v.1.15,2013-04-23 18:24:00,
2013-04-23 11:29:00,82.1,11.9,29.89,North,356,12.0,26.0,7,0.00,,,0.00,Wunderground v.1.15,2013-04-23 18:29:00,
2013-04-23 11:34:00,82.2,8.5,29.89,NNE,28,13.0,28.0,6,0.00,,,0.00,Wunderground v.1.15,2013-04-23 18:34:00,
2013-04-23 11:39:00,82.2,8.5,29.88,NNW,342,21.0,28.0,6,0.00,,,0.00,Wunderground v.1.15,2013-04-23 18:39:00,
2013-04-23 11:44:00,82.3,8.6,29.88,NNW,337,24.0,26.0,6,0.00,,,0.00,Wunderground v.1.15,2013-04-23 18:44:00,
2013-04-23 11:49:00,82.3,8.6,29.88,North,353,22.0,28.0,6,0.00,,,0.00,Wunderground v.1.15,2013-04-23 18:49:00,
2013-04-23 11:54:00,82.9,12.5,29.88,NNE,22,18.0,27.0,7,0.00,,,0.00,Wunderground v.1.15,2013-04-23 18:54:00,
2013-04-23 11:59:00,83.1,9.1,29.88,NNW,338,22.0,27.0,6,0.00,,,0.00,Wunderground v.1.15,2013-04-23 18:59:00,
2013-04-23 12:04:00,83.1,12.6,29.87,NW,326,15.0,25.0,7,0.00,,,0.00,Wunderground v.1.15,2013-04-23 19:04:00,
2013-04-23 12:09:00,83.2,9.2,29.87,NNW,342,16.0,25.0,6,0.00,,,0.00,Wunderground v.1.15,2013-04-23 19:09:00,
2013-04-23 12:14:00,83.5,5.4,29.87,NW,323,16.0,30.0,5,0.00,,,0.00,Wunderground v.1.15,2013-04-23 19:14:00,
2013-04-23 12:19:00,83.7,9.6,29.87,NNW,340,13.0,30.0,6,0.00,,,0.00,Wunderground v.1.15,2013-04-23 19:19:00,
2013-04-23 12:24:00,84.0,9.8,29.86,North,349,22.0,29.0,6,0.00,,,0.00,Wunderground v.1.15,2013-04-23 19:24:00,
2013-04-23 12:29:00,83.8,5.6,29.86,NW,323,13.0,22.0,5,0.00,,,0.00,Wunderground v.1.15,2013-04-23 19:29:00,
2013-04-23 12:34:00,84.5,10.2,29.86,NW,322,14.0,22.0,6,0.00,,,0.00,Wunderground v.1.15,2013-04-23 19:34:00,
2013-04-23 12:39:00,84.6,10.2,29.86,NW,326,19.0,23.0,6,0.00,,,0.00,Wunderground v.1.15,2013-04-23 19:39:00,
2013-04-23 12:44:00,84.2,5.9,29.86,WNW,303,21.0,26.0,5,0.00,,,0.00,Wunderground v.1.15,2013-04-23 19:44:00,
2013-04-23 12:49:00,84.0,5.7,29.86,North,352,21.0,25.0,5,0.00,,,0.00,Wunderground v.1.15,2013-04-23 19:49:00,
2013-04-23 12:54:00,84.6,6.2,29.86,North,1,16.0,28.0,5,0.00,,,0.00,Wunderground v.1.15,2013-04-23 19:54:00,
2013-04-23 12:59:00,84.5,6.1,29.85,NNE,30,13.0,19.0,5,0.00,,,0.00,Wunderground v.1.15,2013-04-23 19:59:00,
2013-04-23 13:04:00,84.8,6.3,29.85,NNW,345,14.0,25.0,5,0.00,,,0.00,Wunderground v.1.15,2013-04-23 20:04:00,
2013-04-23 13:09:00,84.7,6.2,29.85,NNE,14,14.0,25.0,5,0.00,,,0.00,Wunderground v.1.15,2013-04-23 20:09:00,
2013-04-23 13:14:00,85.2,10.7,29.85,North,9,15.0,24.0,6,0.00,,,0.00,Wunderground v.1.15,2013-04-23 20:14:00,
2013-04-23 13:19:00,85.4,10.8,29.85,NNW,346,8.0,24.0,6,0.00,,,0.00,Wunderground v.1.15,2013-04-23 20:19:00,
2013-04-23 13:24:00,85.6,6.9,29.85,NW,324,19.0,22.0,5,0.00,,,0.00,Wunderground v.1.15,2013-04-23 20:24:00,
2013-04-23 13:29:00,85.6,6.9,29.85,NNW,340,17.0,22.0,5,0.00,,,0.00,Wunderground v.1.15,2013-04-23 20:29:00,
2013-04-23 13:34:00,85.6,10.9,29.85,North,354,23.0,24.0,6,0.00,,,0.00,Wunderground v.1.15,2013-04-23 20:34:00,
2013-04-23 13:39:00,85.5,6.8,29.84,NNW,335,17.0,24.0,5,0.00,,,0.00,Wunderground v.1.15,2013-04-23 20:39:00,
2013-04-23 13:44:00,85.6,10.9,29.84,NNW,343,18.0,25.0,6,0.00,,,0.00,Wunderground v.1.15,2013-04-23 20:44:00,
2013-04-23 13:49:00,86.1,7.2,29.84,NW,312,15.0,25.0,5,0.00,,,0.00,Wunderground v.1.15,2013-04-23 20:49:00,
2013-04-23 13:54:00,85.9,7.1,29.84,NNW,338,14.0,19.0,5,0.00,,,0.00,Wunderground v.1.15,2013-04-23 20:54:00,
2013-04-23 13:59:00,85.8,2.2,29.84,NW,313,14.0,22.0,4,0.00,,,0.00,Wunderground v.1.15,2013-04-23 20:59:00,
2013-04-23 14:04:00,86.0,7.2,29.84,NNE,25,9.0,23.0,5,0.00,,,0.00,Wunderground v.1.15,2013-04-23 21:04:00,
2013-04-23 14:09:00,86.3,2.5,29.84,North,351,12.0,23.0,4,0.00,,,0.00,Wunderground v.1.15,2013-04-23 21:09:00,
2013-04-23 14:14:00,86.2,7.3,29.84,NNW,331,11.0,21.0,5,0.00,,,0.00,Wunderground v.1.15,2013-04-23 21:14:00,
2013-04-23 14:19:00,86.2,2.4,29.83,NW,316,11.0,21.0,4,0.00,,,0.00,Wunderground v.1.15,2013-04-23 21:19:00,
2013-04-23 14:25:00,86.3,2.5,29.83,NNE,15,8.0,21.0,4,0.00,,,0.00,Wunderground v.1.15,2013-04-23 21:25:00,
2013-04-23 14:30:00,86.0,2.3,29.83,NNW,339,20.0,22.0,4,0.00,,,0.00,Wunderground v.1.15,2013-04-23 21:30:00,
2013-04-23 14:35:00,85.9,7.1,29.83,North,354,13.0,21.0,5,0.00,,,0.00,Wunderground v.1.15,2013-04-23 21:35:00,
2013-04-23 14:40:00,86.8,7.7,29.83,North,6,9.0,21.0,5,0.00,,,0.00,Wunderground v.1.15,2013-04-23 21:40:00,
2013-04-23 14:45:00,86.5,2.6,29.82,NNW,336,3.0,18.0,4,0.00,,,0.00,Wunderground v.1.15,2013-04-23 21:45:00,
2013-04-23 14:50:00,87.0,3.0,29.82,North,8,5.0,20.0,4,0.00,,,0.00,Wunderground v.1.15,2013-04-23 21:50:00,
2013-04-23 14:55:00,87.5,3.3,29.82,NNW,330,4.0,13.0,4,0.00,,,0.00,Wunderground v.1.15,2013-04-23 21:55:00,
2013-04-23 15:00:00,87.2,-3.0,29.82,NNW,340,7.0,9.0,3,0.00,,,0.00,Wunderground v.1.15,2013-04-23 22:00:00,
2013-04-23 15:05:00,86.9,7.8,29.81,NNE,19,13.0,14.0,5,0.00,,,0.00,Wunderground v.1.15,2013-04-23 22:05:00,
2013-04-23 15:10:00,87.6,3.4,29.81,NW,319,9.0,9.0,4,0.00,,,0.00,Wunderground v.1.15,2013-04-23 22:10:00,
2013-04-23 15:15:00,88.1,3.7,29.81,ENE,77,6.0,17.0,4,0.00,,,0.00,Wunderground v.1.15,2013-04-23 22:15:00,
2013-04-23 15:20:00,87.9,-2.6,29.80,NW,312,11.0,11.0,3,0.00,,,0.00,Wunderground v.1.15,2013-04-23 22:20:00,
2013-04-23 15:25:00,87.3,3.2,29.80,NW,323,11.0,17.0,4,0.00,,,0.00,Wunderground v.1.15,2013-04-23 22:25:00,
2013-04-23 15:30:00,87.3,8.1,29.80,SSW,207,0.0,8.0,5,0.00,,,0.00,Wunderground v.1.15,2013-04-23 22:30:00,
2013-04-23 15:35:00,87.8,8.4,29.80,NW,325,9.0,14.0,5,0.00,,,0.00,Wunderground v.1.15,2013-04-23 22:35:00,
2013-04-23 15:40:00,87.6,-2.8,29.80,NNW,336,9.0,9.0,3,0.00,,,0.00,Wunderground v.1.15,2013-04-23 22:40:00,
2013-04-23 15:45:00,87.9,-2.6,29.79,NW,323,12.0,20.0,3,0.00,,,0.00,Wunderground v.1.15,2013-04-23 22:45:00,
2013-04-23 15:50:00,88.0,-2.5,29.79,NW,326,16.0,18.0,3,0.00,,,0.00,Wunderground v.1.15,2013-04-23 22:50:00,
2013-04-23 15:55:00,87.6,-11.1,29.79,North,356,11.0,18.0,2,0.00,,,0.00,Wunderground v.1.15,2013-04-23 22:55:00,
2013-04-23 16:00:00,87.4,-2.9,29.79,NNW,345,19.0,19.0,3,0.00,,,0.00,Wunderground v.1.15,2013-04-23 23:00:00,
2013-04-23 16:05:00,87.9,3.6,29.79,NNE,27,14.0,22.0,4,0.00,,,0.00,Wunderground v.1.15,2013-04-23 23:05:00,
2013-04-23 16:10:00,88.3,-2.3,29.79,NNE,31,12.0,12.0,3,0.00,,,0.00,Wunderground v.1.15,2013-04-23 23:10:00,
2013-04-23 16:15:00,88.2,-10.7,29.79,North,8,17.0,19.0,2,0.00,,,0.00,Wunderground v.1.15,2013-04-23 23:15:00,
2013-04-23 16:20:00,87.8,-24.5,29.79,NW,316,14.0,16.0,1,0.00,,,0.00,Wunderground v.1.15,2013-04-23 23:20:00,
2013-04-23 16:25:00,87.8,-11.0,29.79,North,11,20.0,24.0,2,0.00,,,0.00,Wunderground v.1.15,2013-04-23 23:25:00,
2013-04-23 16:30:00,87.9,-24.4,29.79,North,6,15.0,17.0,1,0.00,,,0.00,Wunderground v.1.15,2013-04-23 23:30:00,
2013-04-23 16:35:00,87.7,-11.1,29.78,NNW,335,14.0,23.0,2,0.00,,,0.00,Wunderground v.1.15,2013-04-23 23:35:00,
2013-04-23 16:40:00,87.7,-24.6,29.78,NNW,348,15.0,17.0,1,0.00,,,0.00,Wunderground v.1.15,2013-04-23 23:40:00,
2013-04-23 16:45:00,87.5,-24.7,29.78,NNE,21,12.0,22.0,1,0.00,,,0.00,Wunderground v.1.15,2013-04-23 23:45:00,
2013-04-23 16:50:00,87.5,-24.7,29.78,NNW,335,18.0,18.0,1,0.00,,,0.00,Wunderground v.1.15,2013-04-23 23:50:00,
2013-04-23 16:55:00,87.6,-24.6,29.78,NNE,16,10.0,20.0,1,0.00,,,0.00,Wunderground v.1.15,2013-04-23 23:55:00,
2013-04-23 17:00:00,87.5,-24.7,29.78,NNW,343,15.0,19.0,1,0.00,,,0.00,Wunderground v.1.15,2013-04-24 00:00:00,
2013-04-23 17:05:00,87.3,-24.8,29.78,WNW,295,4.0,22.0,1,0.00,,,0.00,Wunderground v.1.15,2013-04-24 00:05:00,
2013-04-23 17:10:00,86.9,-25.0,29.78,NNW,347,9.0,20.0,1,0.00,,,0.00,Wunderground v.1.15,2013-04-24 00:10:00,
2013-04-23 17:15:00,87.0,-25.0,29.78,NW,319,19.0,20.0,1,0.00,,,0.00,Wunderground v.1.15,2013-04-24 00:15:00,
2013-04-23 17:20:00,86.9,-25.0,29.78,NNE,21,11.0,17.0,1,0.00,,,0.00,Wunderground v.1.15,2013-04-24 00:20:00,
2013-04-23 17:25:00,86.9,-25.0,29.78,NW,311,11.0,18.0,1,0.00,,,0.00,Wunderground v.1.15,2013-04-24 00:25:00,
2013-04-23 17:30:00,86.8,-25.1,29.78,West,281,16.0,18.0,1,0.00,,,0.00,Wunderground v.1.15,2013-04-24 00:30:00,
2013-04-23 17:35:00,86.8,-25.1,29.78,North,352,13.0,18.0,1,0.00,,,0.00,Wunderground v.1.15,2013-04-24 00:35:00,
2013-04-23 17:40:00,86.6,-25.2,29.78,NNW,340,13.0,13.0,1,0.00,,,0.00,Wunderground v.1.15,2013-04-24 00:40:00,
2013-04-23 17:45:00,86.6,-25.2,29.78,NE,37,12.0,18.0,1,0.00,,,0.00,Wunderground v.1.15,2013-04-24 00:45:00,
2013-04-23 17:50:00,86.5,-25.3,29.78,NNE,20,10.0,11.0,1,0.00,,,0.00,Wunderground v.1.15,2013-04-24 00:50:00,
2013-04-23 17:55:00,86.3,-25.4,29.77,NE,41,4.0,17.0,1,0.00,,,0.00,Wunderground v.1.15,2013-04-24 00:55:00,
2013-04-23 18:00:00,86.1,-25.5,29.77,East,86,8.0,16.0,1,0.00,,,0.00,Wunderground v.1.15,2013-04-24 01:00:00,
2013-04-23 18:05:00,85.9,-25.6,29.78,ESE,110,9.0,16.0,1,0.00,,,0.00,Wunderground v.1.15,2013-04-24 01:05:00,
2013-04-23 18:10:00,85.7,-25.8,29.77,East,98,5.0,10.0,1,0.00,,,0.00,Wunderground v.1.15,2013-04-24 01:10:00,
2013-04-23 18:15:00,85.4,-25.9,29.77,North,354,4.0,16.0,1,0.00,,,0.00,Wunderground v.1.15,2013-04-24 01:15:00,
2013-04-23 18:20:00,85.2,-26.1,29.77,NNE,12,9.0,12.0,1,0.00,,,0.00,Wunderground v.1.15,2013-04-24 01:20:00,
2013-04-23 18:26:00,84.9,-12.8,29.77,North,353,5.0,15.0,2,0.00,,,0.00,Wunderground v.1.15,2013-04-24 01:26:00,
2013-04-23 18:31:00,84.5,-13.1,29.77,North,1,3.0,10.0,2,0.00,,,0.00,Wunderground v.1.15,2013-04-24 01:31:00,
2013-04-23 18:36:00,84.2,-13.3,29.77,North,360,6.0,14.0,2,0.00,,,0.00,Wunderground v.1.15,2013-04-24 01:36:00,
2013-04-23 18:41:00,83.9,-13.5,29.77,NNE,33,5.0,9.0,2,0.00,,,0.00,Wunderground v.1.15,2013-04-24 01:41:00,
2013-04-23 18:46:00,83.4,-13.8,29.77,North,360,5.0,15.0,2,0.00,,,0.00,Wunderground v.1.15,2013-04-24 01:46:00,
2013-04-23 18:51:00,82.7,-14.3,29.78,North,6,5.0,10.0,2,0.00,,,0.00,Wunderground v.1.15,2013-04-24 01:51:00,
2013-04-23 18:56:00,82.1,-14.6,29.77,NNE,22,6.0,11.0,2,0.00,,,0.00,Wunderground v.1.15,2013-04-24 01:56:00,
2013-04-23 19:01:00,81.5,-15.0,29.78,NW,311,3.0,7.0,2,0.00,,,0.00,Wunderground v.1.15,2013-04-24 02:01:00,
2013-04-23 19:06:00,80.8,-7.3,29.78,WNW,295,3.0,8.0,3,0.00,,,0.00,Wunderground v.1.15,2013-04-24 02:06:00,
2013-04-23 19:11:00,80.0,-7.8,29.78,North,351,4.0,6.0,3,0.00,,,0.00,Wunderground v.1.15,2013-04-24 02:11:00,
2013-04-23 19:16:00,79.5,-8.2,29.78,North,6,4.0,9.0,3,0.00,,,0.00,Wunderground v.1.15,2013-04-24 02:16:00,
2013-04-23 19:21:00,78.8,-8.6,29.78,WNW,302,7.0,8.0,3,0.00,,,0.00,Wunderground v.1.15,2013-04-24 02:21:00,
2013-04-23 19:26:00,78.0,-9.2,29.78,NE,34,5.0,12.0,3,0.00,,,0.00,Wunderground v.1.15,2013-04-24 02:26:00,
2013-04-23 19:31:00,77.5,-9.5,29.78,ESE,123,3.0,6.0,3,0.00,,,0.00,Wunderground v.1.15,2013-04-24 02:31:00,
2013-04-23 19:36:00,77.2,-9.7,29.78,NNE,25,5.0,11.0,3,0.00,,,0.00,Wunderground v.1.15,2013-04-24 02:36:00,
2013-04-23 19:41:00,76.8,-10.0,29.79,NNE,32,4.0,7.0,3,0.00,,,0.00,Wunderground v.1.15,2013-04-24 02:41:00,
2013-04-23 19:46:00,76.6,-10.1,29.79,NE,35,5.0,8.0,3,0.00,,,0.00,Wunderground v.1.15,2013-04-24 02:46:00,
2013-04-23 19:52:00,76.3,-10.3,29.79,NNE,16,3.0,5.0,3,0.00,,,0.00,Wunderground v.1.15,2013-04-24 02:52:00,
2013-04-23 19:57:00,76.2,-10.4,29.79,NE,34,4.0,6.0,3,0.00,,,0.00,Wunderground v.1.15,2013-04-24 02:57:00,
2013-04-23 20:02:00,76.0,-10.5,29.79,NE,42,4.0,4.0,3,0.00,,,0.00,Wunderground v.1.15,2013-04-24 03:02:00,
2013-04-23 20:07:00,75.4,-10.9,29.79,North,353,3.0,6.0,3,0.00,,,0.00,Wunderground v.1.15,2013-04-24 03:07:00,
2013-04-23 20:12:00,75.1,-11.1,29.80,ENE,67,3.0,5.0,3,0.00,,,0.00,Wunderground v.1.15,2013-04-24 03:12:00,
2013-04-23 20:17:00,75.1,-11.1,29.80,NNE,24,1.0,6.0,3,0.00,,,0.00,Wunderground v.1.15,2013-04-24 03:17:00,
2013-04-23 20:22:00,75.4,-19.0,29.80,SE,138,0.0,3.0,2,0.00,,,0.00,Wunderground v.1.15,2013-04-24 03:22:00,
2013-04-23 20:27:00,75.6,-18.8,29.80,NNW,346,0.0,3.0,2,0.00,,,0.00,Wunderground v.1.15,2013-04-24 03:27:00,
2013-04-23 20:32:00,75.5,-18.9,29.80,West,280,1.0,1.0,2,0.00,,,0.00,Wunderground v.1.15,2013-04-24 03:32:00,
2013-04-23 20:37:00,75.5,-18.9,29.80,NE,37,2.0,2.0,2,0.00,,,0.00,Wunderground v.1.15,2013-04-24 03:37:00,
2013-04-23 20:42:00,75.5,-18.9,29.81,East,83,2.0,2.0,2,0.00,,,0.00,Wunderground v.1.15,2013-04-24 03:42:00,
2013-04-23 20:47:00,75.5,-18.9,29.81,NNW,327,1.0,2.0,2,0.00,,,0.00,Wunderground v.1.15,2013-04-24 03:47:00,
2013-04-23 20:52:00,75.5,-18.9,29.81,WNW,300,1.0,2.0,2,0.00,,,0.00,Wunderground v.1.15,2013-04-24 03:52:00,
2013-04-23 20:57:00,75.6,-18.8,29.81,NE,37,1.0,9.0,2,0.00,,,0.00,Wunderground v.1.15,2013-04-24 03:57:00,
2013-04-23 21:01:00,75.5,-18.9,29.81,NNE,28,1.0,2.0,2,0.00,,,0.00,Wunderground v.1.15,2013-04-24 04:01:00,
2013-04-23 21:02:00,75.5,-18.9,29.81,NW,319,1.0,2.0,2,0.00,,,0.00,Wunderground v.1.15,2013-04-24 04:02:00,
2013-04-23 21:07:00,75.4,-19.0,29.81,NE,45,1.0,2.0,2,0.00,,,0.00,Wunderground v.1.15,2013-04-24 04:07:00,
2013-04-23 21:12:00,75.1,-19.2,29.81,NNE,13,1.0,1.0,2,0.00,,,0.00,Wunderground v.1.15,2013-04-24 04:12:00,
2013-04-23 21:17:00,74.8,-11.3,29.81,NE,51,0.0,2.0,3,0.00,,,0.00,Wunderground v.1.15,2013-04-24 04:17:00,
2013-04-23 21:22:00,74.5,-11.5,29.81,ENE,69,0.0,2.0,3,0.00,,,0.00,Wunderground v.1.15,2013-04-24 04:22:00,
2013-04-23 21:27:00,74.1,-11.8,29.81,WNW,284,0.0,2.0,3,0.00,,,0.00,Wunderground v.1.15,2013-04-24 04:27:00,
2013-04-23 21:32:00,73.9,-11.9,29.81,NNE,13,1.0,1.0,3,0.00,,,0.00,Wunderground v.1.15,2013-04-24 04:32:00,
2013-04-23 21:37:00,73.7,-12.1,29.82,ENE,60,1.0,1.0,3,0.00,,,0.00,Wunderground v.1.15,2013-04-24 04:37:00,
2013-04-23 21:42:00,73.6,-12.1,29.82,WNW,303,0.0,1.0,3,0.00,,,0.00,Wunderground v.1.15,2013-04-24 04:42:00,
2013-04-23 21:47:00,73.4,-12.3,29.82,WNW,288,0.0,1.0,3,0.00,,,0.00,Wunderground v.1.15,2013-04-24 04:47:00,
2013-04-23 21:52:00,73.3,-12.3,29.81,NNE,18,1.0,2.0,3,0.00,,,0.00,Wunderground v.1.15,2013-04-24 04:52:00,
2013-04-23 21:57:00,73.3,-12.3,29.82,SSE,158,0.0,2.0,3,0.00,,,0.00,Wunderground v.1.15,2013-04-24 04:57:00,
2013-04-23 22:02:00,73.1,-12.5,29.82,ENE,67,1.0,1.0,3,0.00,,,0.00,Wunderground v.1.15,2013-04-24 05:02:00,
2013-04-23 22:07:00,72.9,-12.6,29.82,NNE,32,0.0,1.0,3,0.00,,,0.00,Wunderground v.1.15,2013-04-24 05:07:00,
2013-04-23 22:12:00,72.6,-12.8,29.82,North,360,1.0,2.0,3,0.00,,,0.00,Wunderground v.1.15,2013-04-24 05:12:00,
2013-04-23 22:17:00,72.3,-7.2,29.82,ENE,63,1.0,2.0,4,0.00,,,0.00,Wunderground v.1.15,2013-04-24 05:17:00,
2013-04-23 22:22:00,72.0,-7.4,29.82,NNW,327,1.0,2.0,4,0.00,,,0.00,Wunderground v.1.15,2013-04-24 05:22:00,
2013-04-23 22:27:00,71.6,-3.0,29.82,NE,40,1.0,3.0,5,0.00,,,0.00,Wunderground v.1.15,2013-04-24 05:27:00,
2013-04-23 22:32:00,71.6,-3.0,29.82,East,92,1.0,3.0,5,0.00,,,0.00,Wunderground v.1.15,2013-04-24 05:32:00,
2013-04-23 22:37:00,71.1,0.5,29.82,NNE,15,0.0,3.0,6,0.00,,,0.00,Wunderground v.1.15,2013-04-24 05:37:00,
2013-04-23 22:42:00,70.7,0.2,29.82,NNE,15,0.0,1.0,6,0.00,,,0.00,Wunderground v.1.15,2013-04-24 05:42:00,
2013-04-23 22:47:00,70.3,-8.6,29.82,ENE,70,2.0,3.0,4,0.00,,,0.00,Wunderground v.1.15,2013-04-24 05:47:00,
2013-04-23 22:52:00,71.0,-8.1,29.82,East,79,3.0,5.0,4,0.00,,,0.00,Wunderground v.1.15,2013-04-24 05:52:00,
2013-04-23 22:57:00,71.6,-13.5,29.82,East,89,2.0,5.0,3,0.00,,,0.00,Wunderground v.1.15,2013-04-24 05:57:00,
2013-04-23 23:02:00,71.9,-13.3,29.82,ESE,102,4.0,7.0,3,0.00,,,0.00,Wunderground v.1.15,2013-04-24 06:02:00,
2013-04-23 23:07:00,72.6,-12.8,29.82,East,101,4.0,7.0,3,0.00,,,0.00,Wunderground v.1.15,2013-04-24 06:07:00,
2013-04-23 23:12:00,72.6,-12.8,29.82,ESE,103,3.0,4.0,3,0.00,,,0.00,Wunderground v.1.15,2013-04-24 06:12:00,
2013-04-23 23:17:00,72.4,-13.0,29.82,ENE,66,2.0,5.0,3,0.00,,,0.00,Wunderground v.1.15,2013-04-24 06:17:00,
2013-04-23 23:22:00,71.4,-7.8,29.82,East,81,2.0,6.0,4,0.00,,,0.00,Wunderground v.1.15,2013-04-24 06:22:00,
2013-04-23 23:27:00,70.8,-8.2,29.82,NE,56,4.0,6.0,4,0.00,,,0.00,Wunderground v.1.15,2013-04-24 06:27:00,
2013-04-23 23:32:00,70.7,-8.3,29.82,ENE,60,0.0,6.0,4,0.00,,,0.00,Wunderground v.1.15,2013-04-24 06:32:00,
2013-04-23 23:37:00,71.1,-8.0,29.82,East,82,2.0,6.0,4,0.00,,,0.00,Wunderground v.1.15,2013-04-24 06:37:00,
2013-04-23 23:42:00,71.8,-13.4,29.82,ENE,76,2.0,4.0,3,0.00,,,0.00,Wunderground v.1.15,2013-04-24 06:42:00,
2013-04-23 23:47:00,71.5,-13.6,29.82,East,97,2.0,4.0,3,0.00,,,0.00,Wunderground v.1.15,2013-04-24 06:47:00,
2013-04-23 23:52:00,70.2,-8.6,29.82,ENE,75,2.0,3.0,4,0.00,,,0.00,Wunderground v.1.15,2013-04-24 06:52:00,
2013-04-23 23:57:00,69.5,-9.1,29.82,ENE,74,3.0,4.0,4,0.00,,,0.00,Wunderground v.1.15,2013-04-24 06:57:00,